Time;durP1;ratioP1;P1;durP2;ratioP2;P2;SDS_P1;SDS_P2;PMS_P1;PMS_P2;Temp;Humidity;BMP_temperature;BMP_pressure;BME280_temperature;BME280_humidity;BME280_pressure;Samples;Min_cycle;Max_cycle;Signal;HPM_P1;HPM_P2
2022/01/14 00:01:42;;;;;;;54.97;21.00;;;;;;;1.41;93.48;102719.84;5026726;28;20244;-70
2022/01/14 00:04:09;;;;;;;56.10;22.47;;;;;;;1.41;93.28;102731.22;5014368;28;20247;-70
2022/01/14 00:06:38;;;;;;;56.37;21.90;;;;;;;1.41;93.18;102722.47;5031128;28;20203;-70
2022/01/14 00:09:06;;;;;;;58.50;22.10;;;;;;;1.42;93.22;102726.84;5025339;28;20215;-71
2022/01/14 00:11:33;;;;;;;54.10;21.47;;;;;;;1.42;93.61;102724.22;5021405;28;20214;-67
2022/01/14 00:14:10;;;;;;;56.20;22.07;;;;;;;1.41;93.14;102725.09;5019815;28;20719;-70
2022/01/14 00:16:37;;;;;;;57.20;20.57;;;;;;;1.41;93.09;102723.34;5019740;28;20317;-70
2022/01/14 00:19:04;;;;;;;51.33;21.67;;;;;;;1.42;93.28;102732.97;5031671;28;20751;-70
2022/01/14 00:21:33;;;;;;;47.80;19.97;;;;;;;1.43;93.52;102723.34;5029097;28;20324;-70
2022/01/14 00:24:08;;;;;;;53.73;20.27;;;;;;;1.43;93.26;102718.09;5014066;28;20696;-68
2022/01/14 00:32:09;;;;;;;49.00;18.93;;;;;;;1.48;93.16;102717.25;5013542;28;20365;-71
2022/01/14 00:34:36;;;;;;;51.43;19.07;;;;;;;1.50;93.59;102715.50;5026655;28;20281;-70
2022/01/14 00:37:02;;;;;;;49.03;19.43;;;;;;;1.51;93.15;102712.03;5025208;28;20289;-71
2022/01/14 00:39:31;;;;;;;43.40;18.03;;;;;;;1.53;93.05;102712.03;5018933;28;20289;-70
2022/01/14 00:41:58;;;;;;;45.40;18.63;;;;;;;1.53;93.25;102715.53;5018828;28;20730;-70
2022/01/14 00:44:25;;;;;;;46.10;17.70;;;;;;;1.54;93.58;102716.41;5038020;28;20209;-70
2022/01/14 00:46:52;;;;;;;53.53;19.67;;;;;;;1.56;93.42;102709.44;5028673;28;20306;-70
2022/01/14 00:49:20;;;;;;;51.07;18.37;;;;;;;1.57;93.25;102705.94;5019462;28;20217;-70
2022/01/14 00:51:48;;;;;;;50.57;19.57;;;;;;;1.58;93.36;102712.94;5023279;28;20314;-71
2022/01/14 00:54:15;;;;;;;43.97;17.93;;;;;;;1.59;93.21;102712.97;5023523;28;20330;-70
2022/01/14 00:56:49;;;;;;;47.27;19.90;;;;;;;1.61;93.22;102705.09;5028710;28;20316;-70
2022/01/14 00:59:16;;;;;;;46.57;19.27;;;;;;;1.61;93.56;102703.31;5025006;28;20689;-71
2022/01/14 01:01:45;;;;;;;46.30;18.20;;;;;;;1.64;93.40;102707.72;5032417;28;20230;-70
2022/01/14 01:04:13;;;;;;;45.47;19.87;;;;;;;1.66;93.18;102698.09;5031227;28;20242;-71
2022/01/14 01:06:40;;;;;;;46.63;18.17;;;;;;;1.68;93.36;102701.63;5019014;28;20676;-70
2022/01/14 01:09:10;;;;;;;49.00;19.50;;;;;;;1.71;93.33;102696.38;5032143;28;20672;-71
2022/01/14 01:11:40;;;;;;;45.23;17.83;;;;;;;1.71;93.48;102692.00;5025049;28;20233;-71
2022/01/14 01:14:12;;;;;;;52.07;17.03;;;;;;;1.75;93.45;102692.91;5020460;28;20211;-70
2022/01/14 01:16:39;;;;;;;44.70;18.63;;;;;;;1.76;93.23;102693.78;5024328;28;20230;-72
2022/01/14 01:19:06;;;;;;;46.17;18.77;;;;;;;1.76;93.46;102694.69;5018632;28;20707;-70
2022/01/14 01:21:33;;;;;;;48.70;20.80;;;;;;;1.78;92.97;102705.19;5031104;28;20242;-72
2022/01/14 01:24:00;;;;;;;39.23;18.13;;;;;;;1.79;93.47;102704.31;5029467;28;20245;-68
2022/01/14 01:26:30;;;;;;;50.03;20.30;;;;;;;1.81;93.13;102700.81;5032011;28;20249;-71
2022/01/14 01:29:16;;;;;;;47.67;19.83;;;;;;;1.81;92.96;102692.06;5030129;28;20202;-71
2022/01/14 01:31:45;;;;;;;47.57;18.90;;;;;;;1.83;93.35;102698.19;5028741;28;20741;-71
2022/01/14 01:34:14;;;;;;;47.73;18.53;;;;;;;1.84;93.13;102703.47;5030547;28;20690;-71
2022/01/14 01:36:42;;;;;;;45.60;18.73;;;;;;;1.85;93.20;102699.97;5022091;28;20250;-71
2022/01/14 01:39:11;;;;;;;49.77;19.03;;;;;;;1.86;92.78;102699.09;5028303;28;20638;-71
2022/01/14 01:41:41;;;;;;;42.20;19.20;;;;;;;1.86;92.92;102699.09;5027394;28;20241;-71
2022/01/14 01:44:08;;;;;;;47.50;18.70;;;;;;;1.89;92.65;102703.50;5039068;28;20755;-70
2022/01/14 01:46:37;;;;;;;44.67;17.90;;;;;;;1.91;93.03;102696.50;5035639;28;20233;-71
2022/01/14 01:49:06;;;;;;;41.53;18.10;;;;;;;1.93;92.67;102695.63;5012130;28;20217;-70
2022/01/14 01:51:32;;;;;;;40.70;16.93;;;;;;;1.95;92.84;102693.03;5025140;28;20202;-70
2022/01/14 01:53:59;;;;;;;41.97;18.43;;;;;;;1.94;92.51;102699.16;5026205;28;20229;-69
2022/01/14 01:56:26;;;;;;;42.40;18.13;;;;;;;1.96;92.56;102689.53;5021048;28;20268;-70
2022/01/14 01:58:53;;;;;;;36.67;18.27;;;;;;;1.97;92.49;102683.41;5030927;28;20207;-70
2022/01/14 02:01:19;;;;;;;40.33;16.57;;;;;;;1.97;92.44;102680.78;5012336;28;20215;-69
2022/01/14 02:03:46;;;;;;;41.10;16.70;;;;;;;1.97;92.77;102681.63;5066441;22;20796;-73
2022/01/14 02:06:16;;;;;;;40.77;16.03;;;;;;;1.98;92.40;102683.38;5034444;28;20256;-73
2022/01/14 02:08:43;;;;;;;41.43;16.57;;;;;;;1.98;92.36;102686.00;5029591;28;20206;-73
2022/01/14 02:11:09;;;;;;;36.73;17.13;;;;;;;1.98;92.57;102679.88;5030934;28;20237;-73
2022/01/14 02:13:36;;;;;;;36.20;16.33;;;;;;;2.00;92.44;102676.38;5028468;28;20254;-73
2022/01/14 02:16:18;;;;;;;39.90;17.53;;;;;;;2.01;92.46;102678.13;5011394;28;20322;-73
2022/01/14 02:19:00;;;;;;;34.13;15.97;;;;;;;2.01;92.31;102672.88;5028218;28;20216;-73
2022/01/14 02:24:32;;;;;;;35.20;15.93;;;;;;;2.02;92.47;102676.41;5011340;28;20292;-73
2022/01/14 02:26:59;;;;;;;38.97;16.60;;;;;;;2.05;92.29;102671.16;5025735;28;20582;-73
2022/01/14 02:29:25;;;;;;;39.13;16.53;;;;;;;2.05;92.45;102671.16;5029911;28;20428;-70
2022/01/14 02:31:52;;;;;;;40.50;16.60;;;;;;;2.06;92.05;102672.91;5030171;28;20731;-73
2022/01/14 02:34:19;;;;;;;37.50;16.23;;;;;;;2.07;91.84;102680.81;5030204;28;20603;-70
2022/01/14 02:36:48;;;;;;;31.87;15.43;;;;;;;2.07;92.04;102678.19;5035848;28;20417;-73
2022/01/14 02:39:17;;;;;;;38.93;16.20;;;;;;;2.09;91.90;102671.19;5030119;28;20289;-73
2022/01/14 02:41:45;;;;;;;40.50;16.57;;;;;;;2.09;92.22;102665.94;5029963;28;20242;-73
2022/01/14 02:44:17;;;;;;;34.07;15.90;;;;;;;2.10;91.94;102664.19;5024631;28;20220;-73
2022/01/14 02:46:52;;;;;;;40.73;17.63;;;;;;;2.11;92.23;102662.44;5018591;28;20206;-73
2022/01/14 02:49:18;;;;;;;39.73;18.10;;;;;;;2.12;92.07;102661.56;5027092;28;20201;-73
2022/01/14 02:51:47;;;;;;;37.77;16.93;;;;;;;2.14;92.32;102651.94;5018077;28;20290;-72
2022/01/14 02:54:16;;;;;;;35.77;16.23;;;;;;;2.14;92.06;102651.94;5029300;28;20230;-73
2022/01/14 02:56:44;;;;;;;36.20;16.80;;;;;;;2.15;92.21;102646.66;5034503;28;20284;-70
2022/01/14 02:59:12;;;;;;;37.80;16.13;;;;;;;2.16;92.08;102648.41;5030106;28;20250;-73
2022/01/14 03:01:38;;;;;;;38.40;17.03;;;;;;;2.16;92.21;102640.53;5029972;28;20297;-73
2022/01/14 03:04:05;;;;;;;40.03;18.03;;;;;;;2.17;92.09;102630.88;5026989;28;20660;-71
2022/01/14 03:06:32;;;;;;;35.30;16.17;;;;;;;2.17;92.28;102625.63;5028193;28;20214;-73
2022/01/14 03:09:01;;;;;;;38.80;16.77;;;;;;;2.17;91.96;102625.63;5028325;28;20297;-73
2022/01/14 03:11:31;;;;;;;38.00;17.20;;;;;;;2.18;91.95;102628.25;5035243;28;20261;-72
2022/01/14 03:13:59;;;;;;;38.57;15.70;;;;;;;2.19;92.00;102626.50;5035036;28;20321;-73
2022/01/14 03:16:26;;;;;;;37.17;17.17;;;;;;;2.21;92.15;102627.41;5027389;28;20751;-73
2022/01/14 03:19:03;;;;;;;35.47;15.13;;;;;;;2.22;92.28;102629.16;5025246;28;20221;-72
2022/01/14 03:21:36;;;;;;;34.50;16.43;;;;;;;2.21;92.23;102622.13;5023013;28;20213;-73
2022/01/14 03:24:16;;;;;;;35.07;16.10;;;;;;;2.22;91.86;102622.16;5028554;28;20234;-72
2022/01/14 03:26:45;;;;;;;38.37;17.33;;;;;;;2.23;92.46;102629.16;5020524;28;20206;-72
2022/01/14 03:29:12;;;;;;;38.00;15.93;;;;;;;2.24;92.19;102630.03;5028690;28;20655;-73
2022/01/14 03:31:39;;;;;;;33.97;16.30;;;;;;;2.25;92.24;102616.03;5016788;28;20297;-73
2022/01/14 03:34:06;;;;;;;36.13;16.00;;;;;;;2.27;92.32;102616.91;5029436;28;20721;-73
2022/01/14 03:36:33;;;;;;;38.43;17.83;;;;;;;2.27;92.20;102611.66;5026732;28;20313;-73
2022/01/14 03:39:00;;;;;;;34.87;15.77;;;;;;;2.28;92.42;102614.28;5026270;28;20237;-73
2022/01/14 03:41:28;;;;;;;36.30;16.67;;;;;;;2.28;92.34;102611.66;5016925;28;20276;-72
2022/01/14 03:43:54;;;;;;;37.03;16.53;;;;;;;2.29;92.94;102616.03;5030637;28;20249;-72
2022/01/14 03:46:21;;;;;;;36.10;16.13;;;;;;;2.29;92.90;102608.16;5027920;28;20320;-73
2022/01/14 03:48:47;;;;;;;38.57;17.33;;;;;;;2.29;92.69;102618.66;5035762;28;20753;-73
2022/01/14 03:51:14;;;;;;;38.57;15.73;;;;;;;2.28;92.33;102626.56;5030079;28;20214;-73
2022/01/14 03:53:41;;;;;;;40.70;17.03;;;;;;;2.29;92.78;102625.69;5024571;28;20227;-73
2022/01/14 03:56:08;;;;;;;43.87;17.43;;;;;;;2.31;92.83;102621.31;5024104;28;20257;-74
2022/01/14 03:58:36;;;;;;;42.27;17.60;;;;;;;2.31;92.88;102616.91;5031862;28;20205;-72
2022/01/14 04:01:03;;;;;;;36.00;16.40;;;;;;;2.32;92.64;102607.28;5030459;28;20222;-73
2022/01/14 04:03:30;;;;;;;42.20;17.90;;;;;;;2.33;92.26;102609.03;5017080;28;20257;-71
2022/01/14 04:05:56;;;;;;;41.70;17.33;;;;;;;2.32;92.29;102607.28;5028829;28;20225;-73
2022/01/14 04:08:23;;;;;;;41.80;17.60;;;;;;;2.32;92.34;102604.66;5028674;28;20208;-70
2022/01/14 04:10:52;;;;;;;44.27;18.10;;;;;;;2.30;92.89;102609.03;5017355;28;20252;-73
2022/01/14 04:13:22;;;;;;;39.23;17.47;;;;;;;2.32;92.55;102610.78;5022810;28;20230;-71
2022/01/14 04:15:50;;;;;;;41.30;16.67;;;;;;;2.34;92.59;102610.75;5018923;28;20215;-72
2022/01/14 04:18:19;;;;;;;37.60;17.17;;;;;;;2.34;92.50;102600.25;5030229;28;20218;-73
2022/01/14 04:20:48;;;;;;;42.27;17.80;;;;;;;2.35;93.08;102604.63;5028527;28;20206;-73
2022/01/14 04:23:16;;;;;;;40.23;17.20;;;;;;;2.34;93.09;102598.50;5028397;28;20222;-73
2022/01/14 04:25:43;;;;;;;43.53;18.37;;;;;;;2.36;93.06;102598.50;5037495;28;20293;-72
2022/01/14 04:28:10;;;;;;;37.57;16.83;;;;;;;2.36;92.47;102590.63;5031653;28;20242;-71
2022/01/14 04:30:37;;;;;;;40.13;17.20;;;;;;;2.36;92.35;102593.25;5019468;28;20210;-71
2022/01/14 04:33:05;;;;;;;40.37;17.50;;;;;;;2.36;92.86;102586.22;5032259;28;20340;-73
2022/01/14 04:35:34;;;;;;;44.83;18.03;;;;;;;2.36;92.67;102587.97;5033345;28;20608;-71
2022/01/14 04:38:01;;;;;;;42.03;16.77;;;;;;;2.37;93.01;102579.22;5036734;28;20257;-72
2022/01/14 04:40:28;;;;;;;38.60;17.70;;;;;;;2.37;93.12;102584.47;5029141;28;20301;-72
2022/01/14 04:42:55;;;;;;;38.30;17.57;;;;;;;2.36;93.28;102572.22;5030198;28;20650;-73
2022/01/14 04:45:41;;;;;;;43.93;18.13;;;;;;;2.35;92.83;102571.34;5034845;28;20203;-73
2022/01/14 04:48:11;;;;;;;38.37;17.13;;;;;;;2.34;93.28;102561.69;5033570;28;20206;-72
2022/01/14 04:50:38;;;;;;;38.93;17.20;;;;;;;2.34;93.62;102556.44;5035759;28;20293;-73
2022/01/14 04:53:08;;;;;;;49.37;17.77;;;;;;;2.35;93.37;102552.91;5040403;28;20249;-72
2022/01/14 04:55:34;;;;;;;40.70;17.43;;;;;;;2.37;93.48;102547.66;5035731;28;20228;-73
2022/01/14 04:58:01;;;;;;;38.53;17.23;;;;;;;2.36;93.18;102549.41;5038148;28;20230;-72
2022/01/14 05:00:28;;;;;;;38.87;17.33;;;;;;;2.37;93.53;102548.53;5039574;28;20767;-72
2022/01/14 05:02:56;;;;;;;47.57;19.23;;;;;;;2.38;93.74;102541.53;5032671;28;20226;-73
2022/01/14 05:05:27;;;;;;;41.23;16.20;;;;;;;2.39;93.40;102536.28;5034152;28;20297;-74
2022/01/14 05:07:54;;;;;;;36.03;16.73;;;;;;;2.40;93.90;102529.28;5034516;28;20216;-74
2022/01/14 05:10:34;;;;;;;39.63;16.70;;;;;;;2.42;93.61;102527.53;5037197;28;20298;-73
2022/01/14 05:13:01;;;;;;;42.80;17.03;;;;;;;2.43;93.68;102526.66;5035794;28;20240;-72
2022/01/14 05:15:28;;;;;;;38.47;17.17;;;;;;;2.45;94.05;102519.63;5031950;28;20299;-73
2022/01/14 05:17:55;;;;;;;37.77;17.27;;;;;;;2.46;94.01;102517.88;5037243;28;20770;-73
2022/01/14 05:20:21;;;;;;;41.73;16.90;;;;;;;2.49;94.30;102523.16;5030046;28;20296;-73
2022/01/14 05:22:49;;;;;;;33.47;16.77;;;;;;;2.46;94.01;102518.75;5033465;28;20284;-71
2022/01/14 05:25:17;;;;;;;40.30;17.23;;;;;;;2.47;94.06;102520.50;5034553;28;20614;-73
2022/01/14 05:27:44;;;;;;;41.87;17.20;;;;;;;2.49;94.20;102533.66;5034065;28;20751;-73
2022/01/14 05:30:14;;;;;;;37.80;16.17;;;;;;;2.48;94.72;102526.66;5032324;28;20291;-72
2022/01/14 05:32:47;;;;;;;39.27;16.50;;;;;;;2.47;94.10;102520.50;5035479;28;20757;-74
2022/01/14 05:35:14;;;;;;;44.43;16.87;;;;;;;2.48;94.59;102517.00;5032773;28;20202;-72
2022/01/14 05:37:41;;;;;;;36.70;15.67;;;;;;;2.49;94.63;102518.78;5030334;28;20318;-73
2022/01/14 05:40:10;;;;;;;42.83;18.00;;;;;;;2.50;94.49;102504.75;5028983;28;20248;-72
2022/01/14 05:42:37;;;;;;;37.80;16.73;;;;;;;2.51;94.21;102506.47;5029840;28;20328;-72
2022/01/14 05:45:04;;;;;;;37.20;16.80;;;;;;;2.53;94.49;102507.34;5029689;28;20364;-73
2022/01/14 05:47:31;;;;;;;37.90;16.27;;;;;;;2.53;94.06;102502.09;5039274;28;20503;-72
2022/01/14 05:49:57;;;;;;;47.27;17.17;;;;;;;2.52;94.18;102502.97;5039707;28;20628;-73
2022/01/14 05:52:24;;;;;;;36.70;16.90;;;;;;;2.51;94.68;102495.94;5032788;28;20230;-72
2022/01/14 05:54:52;;;;;;;40.93;17.10;;;;;;;2.51;94.54;102501.19;5028427;28;20198;-72
2022/01/14 05:57:20;;;;;;;37.70;17.03;;;;;;;2.49;94.91;102497.72;5031288;28;20222;-71
2022/01/14 05:59:47;;;;;;;39.23;17.00;;;;;;;2.50;94.61;102496.84;5032899;28;20202;-72
2022/01/14 06:02:13;;;;;;;43.40;17.30;;;;;;;2.51;94.42;102510.88;5031545;28;20253;-71
2022/01/14 06:04:40;;;;;;;40.40;17.60;;;;;;;2.51;94.30;102508.25;5031378;28;20214;-71
2022/01/14 06:07:07;;;;;;;40.57;17.20;;;;;;;2.52;94.54;102508.22;5023410;28;20232;-72
2022/01/14 06:09:33;;;;;;;40.50;17.67;;;;;;;2.50;94.40;102504.75;5034113;28;20210;-71
2022/01/14 06:12:00;;;;;;;39.57;17.13;;;;;;;2.48;95.01;102495.97;5039362;28;20214;-73
2022/01/14 06:14:28;;;;;;;42.33;18.37;;;;;;;2.48;94.37;102495.97;5038526;28;20583;-72
2022/01/14 06:16:54;;;;;;;41.63;18.00;;;;;;;2.50;94.57;102491.59;5030606;28;20313;-73
2022/01/14 06:19:21;;;;;;;36.73;16.70;;;;;;;2.50;94.67;102475.81;5030884;28;20285;-73
2022/01/14 06:21:48;;;;;;;40.33;17.57;;;;;;;2.53;94.64;102469.66;5031229;28;20238;-73
2022/01/14 06:24:14;;;;;;;41.30;17.60;;;;;;;2.52;94.48;102471.41;5026897;28;20683;-73
2022/01/14 06:26:41;;;;;;;44.43;18.03;;;;;;;2.49;94.72;102460.91;5029962;28;20288;-73
2022/01/14 06:29:08;;;;;;;36.20;16.00;;;;;;;2.49;94.65;102458.28;5029047;28;20301;-74
2022/01/14 06:31:36;;;;;;;37.23;16.50;;;;;;;2.49;94.56;102471.44;5031600;28;20244;-72
2022/01/14 06:34:02;;;;;;;39.60;17.93;;;;;;;2.51;94.72;102469.66;5031545;28;20313;-72
2022/01/14 06:36:29;;;;;;;36.57;16.03;;;;;;;2.50;94.73;102465.28;5031936;28;20202;-71
2022/01/14 06:38:55;;;;;;;41.17;16.67;;;;;;;2.51;94.52;102468.81;5028106;28;20203;-71
2022/01/14 06:41:22;;;;;;;41.73;17.50;;;;;;;2.52;94.57;102478.41;5029758;28;20227;-71
2022/01/14 06:43:49;;;;;;;36.07;15.90;;;;;;;2.53;94.64;102481.03;5031001;28;20310;-72
2022/01/14 06:46:17;;;;;;;35.30;17.13;;;;;;;2.53;94.86;102488.94;5031811;28;20281;-70
2022/01/14 06:48:45;;;;;;;37.20;16.87;;;;;;;2.54;94.73;102481.91;5031535;28;21216;-71
2022/01/14 06:51:15;;;;;;;45.00;18.07;;;;;;;2.54;94.60;102484.53;5011715;28;20299;-72
2022/01/14 06:53:41;;;;;;;39.10;18.37;;;;;;;2.52;94.89;102489.81;5032981;28;20213;-73
2022/01/14 06:56:10;;;;;;;42.57;17.00;;;;;;;2.53;94.91;102493.31;5029656;28;20202;-72
2022/01/14 06:58:36;;;;;;;36.63;16.40;;;;;;;2.51;94.79;102505.63;5025454;28;20236;-71
2022/01/14 07:01:03;;;;;;;39.80;17.47;;;;;;;2.50;95.23;102512.63;5033742;28;20221;-73
2022/01/14 07:03:29;;;;;;;40.50;16.13;;;;;;;2.52;95.25;102524.00;5036301;28;20237;-71
2022/01/14 07:05:57;;;;;;;37.20;16.70;;;;;;;2.54;94.33;102524.00;5031472;28;20655;-71
2022/01/14 07:08:24;;;;;;;38.73;16.90;;;;;;;2.58;94.51;102533.66;5027641;28;20213;-71
2022/01/14 07:10:50;;;;;;;44.27;18.27;;;;;;;2.59;95.48;102541.53;5028873;28;20209;-72
2022/01/14 07:13:19;;;;;;;40.17;16.47;;;;;;;2.61;94.50;102549.44;5030760;28;20238;-71
2022/01/14 07:15:46;;;;;;;42.73;18.07;;;;;;;2.64;95.45;102544.19;5028132;28;20208;-71
2022/01/14 07:18:12;;;;;;;40.63;17.57;;;;;;;2.65;94.85;102549.44;5030311;28;20213;-71
2022/01/14 07:20:39;;;;;;;37.53;17.23;;;;;;;2.67;94.97;102550.31;5029575;28;20208;-70
2022/01/14 07:23:07;;;;;;;40.63;17.90;;;;;;;2.69;94.86;102556.44;5028940;28;20313;-71
2022/01/14 07:25:33;;;;;;;42.07;19.07;;;;;;;2.72;94.82;102547.66;5028978;28;20671;-71
2022/01/14 07:28:00;;;;;;;39.53;18.17;;;;;;;2.73;94.52;102558.19;5030894;28;20226;-70
2022/01/14 07:30:26;;;;;;;38.50;17.63;;;;;;;2.74;94.90;102552.06;5028788;28;20231;-69
2022/01/14 07:32:53;;;;;;;42.27;18.43;;;;;;;2.75;94.72;102550.31;5030481;28;20718;-70
2022/01/14 07:35:19;;;;;;;43.03;18.77;;;;;;;2.74;95.34;102556.44;5032147;28;20210;-70
2022/01/14 07:37:46;;;;;;;44.83;18.90;;;;;;;2.75;95.33;102560.81;5031709;28;20241;-69
2022/01/14 07:40:14;;;;;;;39.90;18.17;;;;;;;2.76;94.61;102566.09;5024036;28;20206;-71
2022/01/14 07:42:41;;;;;;;43.53;19.47;;;;;;;2.78;95.00;102568.72;5040229;28;20225;-71
2022/01/14 07:45:08;;;;;;;40.73;18.27;;;;;;;2.78;95.22;102553.81;5033748;28;20202;-71
2022/01/14 07:47:35;;;;;;;41.17;19.27;;;;;;;2.82;94.38;102561.72;5029362;28;20216;-72
2022/01/14 07:50:01;;;;;;;48.37;19.43;;;;;;;2.81;94.33;102552.94;5028530;28;20206;-72
2022/01/14 07:52:28;;;;;;;43.80;19.70;;;;;;;2.82;94.57;102553.81;5031062;28;20602;-71
2022/01/14 07:54:54;;;;;;;54.03;20.73;;;;;;;2.83;95.07;102555.56;5019908;28;20210;-71
2022/01/14 07:57:22;;;;;;;45.10;20.63;;;;;;;2.85;94.69;102564.34;5028999;28;20237;-70
2022/01/14 07:59:49;;;;;;;41.43;18.93;;;;;;;2.86;94.46;102558.19;5015241;28;20236;-69
2022/01/14 08:04:42;;;;;;;41.03;19.20;;;;;;;2.92;94.79;102571.34;5070802;22;20225;-72
2022/01/14 08:07:09;;;;;;;40.90;18.00;;;;;;;2.91;94.13;102570.47;5038325;28;20252;-71
2022/01/14 08:09:36;;;;;;;41.43;18.73;;;;;;;2.89;94.72;102564.31;5053314;28;20674;-71
2022/01/14 08:12:04;;;;;;;41.60;18.47;;;;;;;2.90;94.80;102575.72;5051275;28;20257;-72
2022/01/14 08:14:32;;;;;;;42.33;19.43;;;;;;;2.90;94.68;102573.97;5044263;28;20226;-71
2022/01/14 08:16:59;;;;;;;46.73;19.10;;;;;;;2.90;95.05;102579.22;5048957;28;20212;-72
2022/01/14 08:19:25;;;;;;;44.53;17.93;;;;;;;2.91;94.63;102588.00;5053385;28;20213;-72
2022/01/14 08:21:52;;;;;;;41.83;18.53;;;;;;;2.93;94.72;102586.25;5053863;28;20292;-71
2022/01/14 08:24:19;;;;;;;50.97;19.77;;;;;;;2.94;94.56;102585.38;5049938;28;20232;-71
2022/01/14 08:26:45;;;;;;;43.17;19.13;;;;;;;2.95;94.89;102592.38;5053507;28;20213;-72
2022/01/14 08:29:12;;;;;;;45.77;19.70;;;;;;;2.97;95.09;102593.28;5052295;28;20224;-73
2022/01/14 08:31:40;;;;;;;49.80;19.77;;;;;;;2.97;94.14;102598.53;5053195;28;20209;-73
2022/01/14 08:34:06;;;;;;;45.13;18.47;;;;;;;2.99;94.94;102613.44;5050558;28;20229;-72
2022/01/14 08:36:33;;;;;;;46.93;19.17;;;;;;;2.99;94.99;102613.44;5052956;28;20224;-73
2022/01/14 08:38:59;;;;;;;42.97;19.27;;;;;;;3.01;94.67;102622.22;5052924;28;20226;-72
2022/01/14 08:41:30;;;;;;;36.53;17.60;;;;;;;3.03;94.86;102611.69;5051897;28;20259;-71
2022/01/14 08:43:58;;;;;;;44.57;20.57;;;;;;;3.05;94.77;102617.81;5053114;28;20240;-72
2022/01/14 08:46:25;;;;;;;48.60;20.37;;;;;;;3.07;94.91;102621.31;5052279;28;20206;-71
2022/01/14 08:48:54;;;;;;;46.47;20.50;;;;;;;3.09;94.27;102617.81;5052885;28;20198;-71
2022/01/14 08:51:21;;;;;;;40.43;19.60;;;;;;;3.11;94.84;102630.97;5052344;28;20660;-72
2022/01/14 08:53:48;;;;;;;44.37;18.97;;;;;;;3.12;94.76;102623.09;5045563;28;20660;-73
2022/01/14 08:56:15;;;;;;;48.03;20.47;;;;;;;3.16;94.67;102620.44;5034417;28;20213;-72
2022/01/14 08:58:41;;;;;;;45.33;20.33;;;;;;;3.15;94.69;102616.94;5036156;28;20222;-70
2022/01/14 09:01:08;;;;;;;50.60;21.10;;;;;;;3.16;95.01;102616.06;5046048;28;20194;-72
2022/01/14 09:03:34;;;;;;;47.63;21.23;;;;;;;3.18;94.46;102616.06;5052279;28;20251;-73
2022/01/14 09:06:02;;;;;;;44.03;20.10;;;;;;;3.20;94.36;102612.56;5050743;28;20213;-73
2022/01/14 09:08:29;;;;;;;45.03;20.00;;;;;;;3.20;94.83;102615.19;5051517;28;20206;-72
2022/01/14 09:10:55;;;;;;;52.47;22.27;;;;;;;3.21;94.83;102614.31;5051894;28;20212;-72
2022/01/14 09:13:22;;;;;;;47.17;21.10;;;;;;;3.23;94.97;102612.53;5052132;28;20256;-72
2022/01/14 09:15:48;;;;;;;64.70;30.30;;;;;;;3.23;94.54;102609.88;5045147;28;20562;-73
2022/01/14 09:18:15;;;;;;;71.33;29.90;;;;;;;3.25;94.87;102618.66;5032899;28;20233;-71
2022/01/14 09:20:41;;;;;;;69.63;33.00;;;;;;;3.28;94.92;102618.66;5049732;28;20209;-73
2022/01/14 09:23:15;;;;;;;57.17;27.33;;;;;;;3.28;94.20;102610.75;5041994;28;20250;-72
2022/01/14 09:25:42;;;;;;;52.50;25.47;;;;;;;3.32;94.94;102606.38;5048956;28;20837;-73
2022/01/14 09:28:08;;;;;;;48.40;23.20;;;;;;;3.35;94.55;102609.00;5050505;28;20228;-72
2022/01/14 09:30:35;;;;;;;51.27;20.67;;;;;;;3.38;93.90;102612.50;5050249;28;20217;-73
2022/01/14 09:33:01;;;;;;;56.53;22.50;;;;;;;3.40;94.16;102613.34;5051974;28;20229;-72
2022/01/14 09:35:28;;;;;;;55.97;25.23;;;;;;;3.40;94.04;102602.81;5051981;28;20214;-72
2022/01/14 09:37:54;;;;;;;49.77;24.60;;;;;;;3.41;94.01;102603.69;5051500;28;20238;-72
2022/01/14 09:40:22;;;;;;;53.50;23.93;;;;;;;3.44;94.75;102604.56;5049888;28;20305;-73
2022/01/14 09:42:50;;;;;;;53.93;22.67;;;;;;;3.43;94.46;102587.00;5042879;28;20221;-73
2022/01/14 09:45:18;;;;;;;49.63;21.63;;;;;;;3.46;94.40;102587.00;5052163;28;20236;-73
2022/01/14 09:47:48;;;;;;;52.83;21.63;;;;;;;3.47;93.86;102594.03;5051420;28;20679;-72
2022/01/14 09:50:14;;;;;;;54.37;22.93;;;;;;;3.49;94.52;102601.94;5041158;28;20206;-72
2022/01/14 09:52:41;;;;;;;51.50;23.23;;;;;;;3.51;94.04;102607.19;5047820;28;21472;-71
2022/01/14 09:55:08;;;;;;;52.07;23.37;;;;;;;3.55;94.53;102595.78;5051688;28;20205;-71
2022/01/14 09:57:36;;;;;;;51.30;22.43;;;;;;;3.57;93.87;102597.53;5050398;28;20209;-72
2022/01/14 10:00:05;;;;;;;45.73;21.77;;;;;;;3.61;94.25;102593.09;5051411;28;20236;-72
2022/01/14 10:02:34;;;;;;;49.83;22.97;;;;;;;3.61;94.42;102591.34;5051402;28;20213;-71
2022/01/14 10:05:01;;;;;;;51.70;23.57;;;;;;;3.63;93.56;102601.88;5033367;28;20305;-70
2022/01/14 10:07:29;;;;;;;49.07;22.67;;;;;;;3.65;93.81;102601.00;5042048;28;20228;-69
2022/01/14 10:09:58;;;;;;;43.23;20.27;;;;;;;3.67;94.33;102609.78;5049214;28;20292;-72
2022/01/14 10:12:26;;;;;;;49.57;22.27;;;;;;;3.67;93.39;102619.44;5047594;28;20694;-71
2022/01/14 10:14:56;;;;;;;48.77;20.97;;;;;;;3.69;93.46;102609.78;5050067;28;20216;-72
2022/01/14 10:17:24;;;;;;;49.77;20.97;;;;;;;3.70;93.60;102616.81;5040483;28;20198;-72
2022/01/14 10:19:51;;;;;;;50.40;21.27;;;;;;;3.70;93.87;102608.91;5049214;28;20225;-72
2022/01/14 10:22:26;;;;;;;49.63;21.90;;;;;;;3.70;93.66;102612.41;5043665;28;20694;-71
2022/01/14 10:25:02;;;;;;;52.57;20.50;;;;;;;3.72;93.90;102602.75;5047889;28;20579;-72
2022/01/14 10:27:34;;;;;;;52.47;22.20;;;;;;;3.74;93.76;102608.00;5060731;28;20733;-71
2022/01/14 10:30:16;;;;;;;51.60;23.33;;;;;;;3.76;93.36;102606.25;5034994;28;20700;-72
2022/01/14 10:32:45;;;;;;;52.40;23.57;;;;;;;3.79;93.30;102606.22;5033339;28;20253;-70
2022/01/14 10:35:13;;;;;;;52.60;23.40;;;;;;;3.81;93.02;102599.19;5037096;28;20300;-72
2022/01/14 10:37:43;;;;;;;49.37;25.30;;;;;;;3.80;93.03;102597.41;5050187;28;20296;-72
2022/01/14 10:40:14;;;;;;;45.47;20.47;;;;;;;3.81;93.02;102592.16;5046333;28;20244;-71
2022/01/14 10:42:42;;;;;;;49.87;22.30;;;;;;;3.84;93.42;102588.63;5047094;28;20730;-71
2022/01/14 10:45:21;;;;;;;48.90;22.33;;;;;;;3.86;92.87;102591.25;5048688;28;20873;-72
2022/01/14 10:47:53;;;;;;;54.60;22.13;;;;;;;3.85;92.85;102579.84;5038463;28;20244;-72
2022/01/14 10:50:27;;;;;;;49.87;19.97;;;;;;;3.85;93.06;102582.47;5047001;28;20239;-72
2022/01/14 10:52:53;;;;;;;56.70;22.33;;;;;;;3.86;93.52;102576.31;5047272;28;20309;-72
2022/01/14 10:55:29;;;;;;;50.77;20.70;;;;;;;3.86;93.25;102568.41;5044714;28;20244;-71
2022/01/14 10:57:57;;;;;;;51.23;21.70;;;;;;;3.90;92.96;102579.81;5037425;28;20300;-72
2022/01/14 11:00:26;;;;;;;52.53;22.60;;;;;;;3.91;93.14;102582.44;5040305;28;20214;-71
2022/01/14 11:02:53;;;;;;;46.40;21.43;;;;;;;3.93;92.76;102588.59;5050174;28;20642;-72
2022/01/14 11:05:22;;;;;;;55.90;22.10;;;;;;;3.99;93.37;102587.66;5039341;28;20220;-72
2022/01/14 11:07:50;;;;;;;54.10;21.80;;;;;;;3.98;92.62;102584.16;5041353;28;20218;-72
2022/01/14 11:10:20;;;;;;;51.73;21.80;;;;;;;4.00;92.75;102586.78;5049974;28;20217;-72
2022/01/14 11:12:47;;;;;;;51.90;21.83;;;;;;;4.00;92.94;102585.03;5050499;28;20642;-72
2022/01/14 11:15:14;;;;;;;54.43;21.33;;;;;;;4.04;92.74;102591.16;5048014;28;20687;-71
2022/01/14 11:17:46;;;;;;;45.93;21.17;;;;;;;4.06;92.98;102585.00;5048244;28;20292;-71
2022/01/14 11:20:13;;;;;;;56.27;22.57;;;;;;;4.08;92.76;102577.09;5060103;28;20237;-70
2022/01/14 11:25:24;;;;;;;53.50;22.13;;;;;;;4.11;93.18;102570.03;5048528;28;20228;-71
2022/01/14 11:27:56;;;;;;;50.70;20.87;;;;;;;4.14;92.65;102571.75;5037257;28;20304;-71
2022/01/14 11:30:33;;;;;;;45.20;20.23;;;;;;;4.16;92.78;102568.22;5049580;28;20751;-71
2022/01/14 11:33:03;;;;;;;50.53;20.13;;;;;;;4.18;92.50;102574.38;5042479;28;20237;-70
2022/01/14 11:35:31;;;;;;;47.50;21.30;;;;;;;4.19;92.34;102569.97;5052331;28;20209;-71